CheckWX is a tool to help pilots better visualize weather data.  It is not intended as a substitute for an official pre-flight weather briefing.

18:27:05 UTC

MDST TAF
Cibao International Airport
Santiago, Dominican Republic
TAF MDST 171600Z 1718/1818 12012KT 9999 SCT022 PRO30 1720 / 1800 7000 -RA FEW016CB BKN018

Feb-17@
18:00 UTC

Feb-17 @ 18:00 UTC

Feb-18@
18:00 UTC

Feb-18 @ 18:00 UTC

TAF MDST 171600Z 1718/1818 12012KT 9999 SCT022 PRO30 1720 / 1800 7000 -RA FEW016CB BKN018
Wind
  • 120° at 12 KTS
Visibility
10,000+ meters
Conditions
Light Rain
Cloud Levels
  • Scattered at 2,200' AGL
  • Few at 1,600' AGL
  • Broken at 1,800' AGL